createdAt,value
2022-10-09T00:01:31.344Z,15.72
2022-10-09T00:04:00.238Z,16.98
2022-10-09T00:06:31.709Z,17.63
2022-10-09T00:09:02.249Z,16.58
2022-10-09T00:11:32.301Z,15.49
2022-10-09T00:14:01.425Z,15.06
2022-10-09T00:16:29.496Z,16.22
2022-10-09T00:18:58.173Z,17.59
2022-10-09T00:21:29.430Z,17.23
2022-10-09T00:24:00.009Z,16.02
2022-10-09T00:26:28.876Z,15.02
2022-10-09T00:28:57.677Z,14.86
2022-10-09T00:31:25.741Z,15.96
2022-10-09T00:33:53.633Z,17.10
2022-10-09T00:36:24.081Z,16.05
2022-10-09T00:38:54.568Z,14.97
2022-10-09T00:41:27.804Z,14.81
2022-10-09T00:44:04.672Z,15.80
2022-10-09T00:46:41.675Z,16.93
2022-10-09T00:49:22.118Z,16.73
2022-10-09T00:51:51.501Z,15.23
2022-10-09T00:54:24.358Z,15.17
2022-10-09T00:56:52.850Z,16.29
2022-10-09T00:59:22.054Z,16.66
2022-10-09T01:01:50.167Z,15.70
2022-10-09T01:04:18.106Z,14.72
2022-10-09T01:07:19.156Z,14.35
2022-10-09T01:10:18.333Z,15.50
2022-10-09T01:13:04.136Z,16.68
2022-10-09T01:15:58.972Z,16.57
2022-10-09T01:18:49.425Z,15.07
2022-10-09T01:21:21.336Z,15.90
2022-10-09T01:23:58.582Z,16.59
2022-10-09T01:26:45.483Z,16.63
2022-10-09T01:29:15.526Z,15.18
2022-10-09T01:31:47.478Z,15.30
2022-10-09T01:34:17.923Z,16.50
2022-10-09T01:36:46.987Z,16.51
2022-10-09T01:39:21.507Z,15.27
2022-10-09T01:41:51.172Z,14.65
2022-10-09T01:44:29.014Z,15.50
2022-10-09T01:46:57.408Z,16.81
2022-10-09T01:49:37.701Z,16.45
2022-10-09T01:52:14.618Z,15.19
2022-10-09T01:55:01.374Z,14.92
2022-10-09T01:57:37.392Z,16.31
2022-10-09T02:00:09.739Z,16.52
2022-10-09T02:02:42.733Z,15.52
2022-10-09T02:05:15.750Z,14.97
2022-10-09T02:07:43.929Z,15.89
2022-10-09T02:10:13.178Z,16.59
2022-10-09T02:12:53.890Z,16.78
2022-10-09T02:15:26.567Z,15.39
2022-10-09T02:18:03.141Z,14.58
2022-10-09T02:20:35.545Z,15.68
2022-10-09T02:23:07.481Z,16.31
2022-10-09T02:25:35.961Z,16.46
2022-10-09T02:28:04.723Z,15.27
2022-10-09T02:30:57.797Z,14.52
2022-10-09T02:33:32.586Z,15.33
2022-10-09T02:36:02.064Z,16.22
2022-10-09T02:38:30.026Z,15.93
2022-10-09T02:40:59.687Z,14.89
2022-10-09T02:43:28.689Z,15.31
2022-10-09T02:45:56.498Z,16.02
2022-10-09T02:48:24.374Z,16.11
2022-10-09T02:50:52.178Z,16.20
2022-10-09T02:53:20.005Z,16.03
2022-10-09T02:55:47.865Z,14.78
2022-10-09T02:58:15.777Z,14.88
2022-10-09T03:00:43.645Z,15.72
2022-10-09T03:03:11.488Z,16.01
2022-10-09T03:05:39.346Z,15.15
2022-10-09T03:08:07.213Z,14.39
2022-10-09T03:10:37.482Z,14.95
2022-10-09T03:13:06.630Z,15.44
2022-10-09T03:15:36.357Z,15.55
2022-10-09T03:18:04.621Z,15.77
2022-10-09T03:20:32.711Z,15.95
2022-10-09T03:23:00.544Z,14.53
2022-10-09T03:25:28.459Z,13.74
2022-10-09T03:27:56.329Z,14.67
2022-10-09T03:30:24.188Z,15.22
2022-10-09T03:32:52.006Z,15.47
2022-10-09T03:35:19.960Z,15.59
2022-10-09T03:37:47.814Z,14.31
2022-10-09T03:40:15.689Z,13.81
2022-10-09T03:42:43.488Z,14.64
2022-10-09T03:45:11.335Z,15.33
2022-10-09T03:47:39.175Z,14.75
2022-10-09T03:50:07.534Z,14.07
2022-10-09T03:52:36.531Z,14.84
2022-10-09T03:55:04.887Z,15.55
2022-10-09T03:57:33.319Z,14.38
2022-10-09T04:00:01.117Z,13.60
2022-10-09T04:02:29.006Z,14.51
2022-10-09T04:04:56.862Z,15.29
2022-10-09T04:07:24.775Z,15.11
2022-10-09T04:09:52.605Z,14.38
2022-10-09T04:12:20.414Z,13.54
2022-10-09T04:14:48.273Z,14.49
2022-10-09T04:17:16.333Z,15.42
2022-10-09T04:19:44.129Z,15.65
2022-10-09T04:22:11.938Z,14.10
2022-10-09T04:24:39.750Z,14.32
2022-10-09T04:27:07.844Z,15.35
2022-10-09T04:29:35.675Z,15.66
2022-10-09T04:32:03.574Z,14.36
2022-10-09T04:34:31.428Z,13.50
2022-10-09T04:36:59.352Z,14.23
2022-10-09T04:39:27.228Z,15.32
2022-10-09T04:41:55.041Z,15.05
2022-10-09T04:44:22.883Z,15.24
2022-10-09T04:46:51.798Z,15.21
2022-10-09T04:49:19.679Z,13.93
2022-10-09T04:51:47.565Z,13.60
2022-10-09T04:54:15.382Z,14.45
2022-10-09T04:56:43.250Z,15.13
2022-10-09T04:59:11.068Z,15.25
2022-10-09T05:01:38.930Z,14.51
2022-10-09T05:04:06.901Z,13.51
2022-10-09T05:06:36.910Z,14.24
2022-10-09T05:09:04.845Z,14.69
2022-10-09T05:11:32.706Z,15.51
2022-10-09T05:14:00.593Z,14.55
2022-10-09T05:16:29.447Z,13.61
2022-10-09T05:18:59.362Z,14.22
2022-10-09T05:21:28.785Z,14.79
2022-10-09T05:23:57.781Z,15.36
2022-10-09T05:26:26.930Z,15.14
2022-10-09T05:28:55.169Z,13.63
2022-10-09T05:31:26.211Z,13.87
2022-10-09T05:33:56.340Z,14.44
2022-10-09T05:36:24.389Z,14.57
2022-10-09T05:38:52.851Z,14.63
2022-10-09T05:41:20.748Z,15.37
2022-10-09T05:43:49.976Z,14.52
2022-10-09T05:46:20.415Z,13.65
2022-10-09T05:49:05.634Z,14.16
2022-10-09T05:51:38.770Z,14.65
2022-10-09T05:54:07.306Z,14.90
2022-10-09T05:56:37.448Z,15.21
2022-10-09T05:59:10.630Z,13.97
2022-10-09T06:01:41.103Z,13.28
2022-10-09T06:04:13.717Z,14.52
2022-10-09T06:06:41.985Z,15.28
2022-10-09T06:09:11.717Z,15.67
2022-10-09T06:11:40.998Z,15.33
2022-10-09T06:14:10.804Z,13.87
2022-10-09T06:16:41.956Z,13.03
2022-10-09T06:19:15.558Z,14.07
2022-10-09T06:21:45.180Z,14.60
2022-10-09T06:24:22.247Z,15.07
2022-10-09T06:26:53.727Z,15.60
2022-10-09T06:29:21.711Z,15.24
2022-10-09T06:31:49.562Z,14.02
2022-10-09T06:34:17.533Z,13.53
2022-10-09T06:36:45.421Z,14.70
2022-10-09T06:39:13.345Z,15.47
2022-10-09T06:41:41.473Z,15.49
2022-10-09T06:44:23.516Z,14.32
2022-10-09T06:46:51.508Z,13.73
2022-10-09T06:49:19.356Z,14.57
2022-10-09T06:51:47.273Z,15.23
2022-10-09T06:54:17.499Z,14.80
2022-10-09T06:56:45.604Z,13.58
2022-10-09T06:59:13.912Z,13.43
2022-10-09T07:01:41.883Z,14.56
2022-10-09T07:04:13.275Z,15.19
2022-10-09T07:06:44.208Z,14.87
2022-10-09T07:09:14.465Z,14.00
2022-10-09T07:11:45.738Z,13.47
2022-10-09T07:14:16.030Z,14.55
2022-10-09T07:16:46.605Z,14.88
2022-10-09T07:19:16.057Z,15.13
2022-10-09T07:21:46.386Z,14.03
2022-10-09T07:24:15.115Z,13.28
2022-10-09T07:26:45.576Z,14.17
2022-10-09T07:29:15.375Z,15.14
2022-10-09T07:31:44.061Z,14.26
2022-10-09T07:34:11.962Z,13.40
2022-10-09T07:36:39.797Z,14.35
2022-10-09T07:39:07.716Z,15.75
2022-10-09T07:41:35.679Z,15.06
2022-10-09T07:44:03.827Z,13.87
2022-10-09T07:46:34.056Z,13.33
2022-10-09T07:49:03.120Z,14.62
2022-10-09T07:51:32.150Z,15.77
2022-10-09T07:54:02.129Z,15.01
2022-10-09T07:56:35.900Z,13.61
2022-10-09T07:59:06.876Z,14.18
2022-10-09T08:01:36.521Z,15.09
2022-10-09T08:04:05.531Z,14.32
2022-10-09T08:06:34.359Z,13.72
2022-10-09T08:09:05.430Z,13.24
2022-10-09T08:11:33.838Z,13.88
2022-10-09T08:14:01.920Z,14.82
2022-10-09T08:16:31.982Z,14.13
2022-10-09T08:19:01.386Z,13.72
2022-10-09T08:21:30.201Z,14.62
2022-10-09T08:23:59.504Z,15.07
2022-10-09T08:26:29.633Z,14.29
2022-10-09T08:29:03.344Z,13.73
2022-10-09T08:31:32.194Z,13.12
2022-10-09T08:34:02.980Z,14.10
2022-10-09T08:36:31.820Z,15.32
2022-10-09T08:39:00.012Z,14.53
2022-10-09T08:41:46.787Z,13.89
2022-10-09T08:44:38.183Z,13.42
2022-10-09T08:47:09.657Z,13.57
2022-10-09T08:49:55.012Z,15.22
2022-10-09T08:52:49.126Z,15.73
2022-10-09T08:55:27.329Z,14.75
2022-10-09T08:57:57.460Z,14.15
2022-10-09T09:00:31.421Z,13.58
2022-10-09T09:03:33.522Z,13.26
2022-10-09T09:06:31.472Z,13.16
2022-10-09T09:09:21.660Z,13.02
2022-10-09T09:12:08.391Z,12.92
2022-10-09T09:14:45.628Z,12.88
2022-10-09T09:17:46.686Z,12.92
2022-10-09T09:20:24.012Z,13.01
2022-10-09T09:22:52.177Z,13.08
2022-10-09T09:25:26.274Z,13.07
2022-10-09T09:27:59.046Z,13.01
2022-10-09T09:30:44.376Z,12.98
2022-10-09T09:33:33.837Z,13.07
2022-10-09T09:36:04.062Z,13.23
2022-10-09T09:38:32.017Z,13.42
2022-10-09T09:40:59.990Z,13.52
2022-10-09T09:43:28.023Z,13.44
2022-10-09T09:45:58.915Z,13.31
2022-10-09T09:48:37.821Z,13.25
2022-10-09T09:51:33.048Z,13.20
2022-10-09T09:54:08.099Z,13.16
2022-10-09T09:57:11.174Z,13.19
2022-10-09T09:59:36.882Z,13.32
2022-10-09T10:02:12.624Z,13.42
2022-10-09T10:04:53.542Z,13.45
2022-10-09T10:07:36.292Z,13.43
2022-10-09T10:10:13.747Z,13.36
2022-10-09T10:12:59.975Z,13.26
2022-10-09T10:15:33.391Z,13.19
2022-10-09T10:18:07.369Z,13.08
2022-10-09T10:20:46.949Z,12.99
2022-10-09T10:23:39.629Z,13.07
2022-10-09T10:26:28.736Z,13.37
2022-10-09T10:29:05.869Z,13.61
2022-10-09T10:32:09.714Z,13.65
2022-10-09T10:34:45.970Z,13.76
2022-10-09T10:37:13.983Z,14.09
2022-10-09T10:39:48.900Z,14.47
2022-10-09T10:42:25.100Z,14.77
2022-10-09T10:45:09.720Z,14.85
2022-10-09T10:47:40.003Z,14.74
2022-10-09T10:50:15.619Z,14.64
2022-10-09T10:53:25.139Z,14.42
2022-10-09T10:55:59.283Z,14.11
2022-10-09T10:58:47.950Z,13.96
2022-10-09T11:01:57.740Z,13.96
2022-10-09T11:05:07.127Z,14.44
2022-10-09T11:08:00.078Z,15.04
2022-10-09T11:10:36.794Z,15.31
2022-10-09T11:13:15.714Z,15.25
2022-10-09T11:16:16.551Z,14.98
2022-10-09T11:18:56.892Z,14.73
2022-10-09T11:21:47.804Z,14.51
2022-10-09T11:24:53.827Z,14.42
2022-10-09T11:27:33.273Z,14.69
2022-10-09T11:30:13.466Z,14.98
2022-10-09T11:33:03.460Z,15.06
2022-10-09T11:35:42.369Z,14.86
2022-10-09T11:38:27.189Z,14.62
2022-10-09T11:40:57.508Z,14.42
2022-10-09T11:43:25.417Z,14.26
2022-10-09T11:45:58.565Z,14.25
2022-10-09T11:48:42.860Z,14.48
2022-10-09T11:51:13.494Z,14.95
2022-10-09T11:53:42.996Z,15.31
2022-10-09T11:56:23.472Z,15.38
2022-10-09T11:59:00.529Z,15.31
2022-10-09T12:01:37.141Z,15.15
2022-10-09T12:04:32.285Z,14.94
2022-10-09T12:07:09.678Z,14.64
2022-10-09T12:09:43.609Z,14.58
2022-10-09T12:12:17.704Z,14.82
2022-10-09T12:14:48.390Z,15.27
2022-10-09T12:17:18.500Z,15.62
2022-10-09T12:19:46.481Z,15.98
2022-10-09T12:22:25.419Z,16.30
2022-10-09T12:24:56.552Z,16.56
2022-10-09T12:27:32.110Z,16.65
2022-10-09T12:30:18.327Z,16.43
2022-10-09T12:33:01.283Z,16.02
2022-10-09T12:35:35.058Z,15.58
2022-10-09T12:38:03.384Z,15.12
2022-10-09T12:40:33.676Z,14.77
2022-10-09T12:43:08.115Z,14.63
2022-10-09T12:45:43.518Z,14.80
2022-10-09T12:48:13.542Z,15.06
2022-10-09T12:50:41.364Z,15.41
2022-10-09T12:53:15.350Z,15.71
2022-10-09T12:56:03.572Z,15.94
2022-10-09T12:58:36.579Z,16.17
2022-10-09T13:01:07.489Z,16.37
2022-10-09T13:03:38.076Z,16.72
2022-10-09T13:06:13.351Z,17.13
2022-10-09T13:08:42.104Z,17.64
2022-10-09T13:11:18.007Z,18.09
2022-10-09T13:13:51.575Z,18.50
2022-10-09T13:16:20.648Z,18.73
2022-10-09T13:18:59.577Z,18.84
2022-10-09T13:21:32.800Z,18.80
2022-10-09T13:24:10.878Z,18.68
2022-10-09T13:26:42.802Z,18.55
2022-10-09T13:29:12.548Z,18.52
2022-10-09T13:31:43.916Z,18.45
2022-10-09T13:34:13.720Z,18.27
2022-10-09T13:36:41.931Z,18.29
2022-10-09T13:39:17.341Z,18.50
2022-10-09T13:41:48.892Z,18.77
2022-10-09T13:44:16.762Z,19.10
2022-10-09T13:46:44.649Z,19.44
2022-10-09T13:49:12.562Z,19.71
2022-10-09T13:51:40.421Z,20.04
2022-10-09T13:54:08.275Z,20.22
2022-10-09T13:56:36.113Z,20.35
2022-10-09T13:59:03.986Z,20.57
2022-10-09T14:01:31.867Z,20.77
2022-10-09T14:03:59.712Z,20.98
2022-10-09T14:06:27.591Z,21.13
2022-10-09T14:08:57.456Z,21.15
2022-10-09T14:11:25.301Z,21.14
2022-10-09T14:13:53.168Z,21.10
2022-10-09T14:16:21.100Z,21.02
2022-10-09T14:18:49.033Z,20.83
2022-10-09T14:21:16.895Z,20.52
2022-10-09T14:23:44.791Z,20.14
2022-10-09T14:26:12.702Z,19.85
2022-10-09T14:28:40.872Z,19.68
2022-10-09T14:31:08.763Z,19.38
2022-10-09T14:33:36.700Z,19.14
2022-10-09T14:36:09.561Z,19.08
2022-10-09T14:38:39.209Z,18.95
2022-10-09T14:41:09.293Z,18.75
2022-10-09T14:43:37.154Z,18.61
2022-10-09T14:46:16.903Z,18.61
2022-10-09T14:48:46.085Z,18.76
2022-10-09T14:51:17.275Z,18.98
2022-10-09T14:53:46.146Z,19.19
2022-10-09T14:56:20.794Z,19.31
2022-10-09T14:58:48.714Z,19.36
2022-10-09T15:01:19.242Z,19.49
2022-10-09T15:03:48.400Z,19.78
2022-10-09T15:06:20.533Z,20.26
2022-10-09T15:08:48.421Z,20.94
2022-10-09T15:11:16.852Z,21.81
2022-10-09T15:13:57.797Z,22.84
2022-10-09T15:16:25.784Z,23.80
2022-10-09T15:18:55.314Z,24.64
2022-10-09T15:21:28.751Z,25.10
2022-10-09T15:23:58.264Z,25.39
2022-10-09T15:26:29.124Z,25.44
2022-10-09T15:28:57.867Z,25.33
2022-10-09T15:31:31.821Z,25.23
2022-10-09T15:34:03.584Z,25.21
2022-10-09T15:36:35.647Z,25.23
2022-10-09T15:39:06.182Z,25.14
2022-10-09T15:41:36.950Z,24.97
2022-10-09T15:44:16.600Z,24.72
2022-10-09T15:46:45.829Z,24.31
2022-10-09T15:49:13.932Z,23.86
2022-10-09T15:51:41.857Z,23.22
2022-10-09T15:54:11.591Z,22.62
2022-10-09T15:56:40.530Z,22.05
2022-10-09T15:59:16.970Z,21.55
2022-10-09T16:01:45.048Z,20.97
2022-10-09T16:04:13.208Z,20.29
2022-10-09T16:06:41.093Z,19.53
2022-10-09T16:09:09.118Z,18.77
2022-10-09T16:11:37.151Z,18.00
2022-10-09T16:14:05.186Z,17.36
2022-10-09T16:16:33.025Z,16.77
2022-10-09T16:19:03.248Z,16.15
2022-10-09T16:21:31.872Z,15.48
2022-10-09T16:24:00.410Z,14.73
2022-10-09T16:26:29.856Z,13.92
2022-10-09T16:29:00.457Z,13.18
2022-10-09T16:31:31.742Z,12.56
2022-10-09T16:34:02.488Z,11.97
2022-10-09T16:36:30.420Z,11.43
2022-10-09T16:38:58.723Z,10.94
2022-10-09T16:41:30.286Z,10.44
2022-10-09T16:44:00.401Z,10.50
2022-10-09T16:49:03.630Z,13.90
2022-10-09T16:51:36.348Z,14.37
2022-10-09T16:54:05.960Z,13.23
2022-10-09T16:56:38.578Z,12.07
2022-10-09T16:59:11.990Z,11.26
2022-10-09T17:01:45.196Z,10.69
2022-10-09T17:04:14.572Z,10.66
2022-10-09T17:06:46.749Z,12.41
2022-10-09T17:09:15.309Z,13.97
2022-10-09T17:11:43.920Z,14.36
2022-10-09T17:14:13.114Z,13.23
2022-10-09T17:16:42.389Z,12.12
2022-10-09T17:19:10.785Z,11.34
2022-10-09T17:21:38.827Z,10.78
2022-10-09T17:24:07.831Z,10.35
2022-10-09T17:26:36.223Z,10.37
2022-10-09T17:29:04.908Z,12.07
2022-10-09T17:31:34.623Z,13.67
2022-10-09T17:34:04.421Z,14.06
2022-10-09T17:36:36.314Z,12.93
2022-10-09T17:39:06.287Z,11.77
2022-10-09T17:41:35.070Z,10.95
2022-10-09T17:44:03.301Z,10.37
2022-10-09T17:46:31.405Z,9.92
2022-10-09T17:49:00.580Z,9.95
2022-10-09T17:51:31.703Z,11.64
2022-10-09T17:54:08.289Z,13.15
2022-10-09T17:56:41.354Z,13.59
2022-10-09T17:59:09.581Z,12.43
2022-10-09T18:01:38.326Z,11.35
2022-10-09T18:04:06.447Z,10.61
2022-10-09T18:06:35.827Z,10.03
2022-10-09T18:09:04.705Z,9.96
2022-10-09T18:11:32.791Z,11.45
2022-10-09T18:14:00.866Z,12.42
2022-10-09T18:16:36.193Z,11.57
2022-10-09T18:19:14.626Z,10.43
2022-10-09T18:21:48.324Z,10.18
2022-10-09T18:24:16.409Z,11.54
2022-10-09T18:26:45.783Z,12.61
2022-10-09T18:29:13.911Z,12.86
2022-10-09T18:31:41.806Z,11.79
2022-10-09T18:34:11.447Z,10.70
2022-10-09T18:36:39.511Z,9.89
2022-10-09T18:39:10.248Z,9.76
2022-10-09T18:41:39.034Z,11.33
2022-10-09T18:44:12.705Z,12.65
2022-10-09T18:46:44.167Z,13.13
2022-10-09T18:49:16.471Z,12.03
2022-10-09T18:51:46.626Z,10.81
2022-10-09T18:54:21.346Z,9.99
2022-10-09T18:56:49.255Z,9.82
2022-10-09T18:59:21.296Z,11.22
2022-10-09T19:01:49.341Z,12.35
2022-10-09T19:04:17.417Z,12.74
2022-10-09T19:06:45.695Z,11.68
2022-10-09T19:09:14.321Z,10.37
2022-10-09T19:11:44.559Z,9.83
2022-10-09T19:14:13.473Z,10.95
2022-10-09T19:16:41.970Z,12.03
2022-10-09T19:19:09.900Z,12.42
2022-10-09T19:21:39.619Z,11.31
2022-10-09T19:24:07.962Z,10.21
2022-10-09T19:26:35.963Z,9.77
2022-10-09T19:29:06.651Z,11.00
2022-10-09T19:31:36.308Z,11.96
2022-10-09T19:34:05.408Z,12.67
2022-10-09T19:36:37.085Z,12.64
2022-10-09T19:39:08.006Z,11.40
2022-10-09T19:41:36.669Z,10.30
2022-10-09T19:44:04.610Z,9.98
2022-10-09T19:46:32.571Z,11.36
2022-10-09T19:49:00.946Z,12.60
2022-10-09T19:51:29.123Z,12.85
2022-10-09T19:53:59.011Z,11.66
2022-10-09T19:56:33.113Z,10.46
2022-10-09T19:59:03.455Z,10.06
2022-10-09T20:01:33.187Z,11.35
2022-10-09T20:04:07.918Z,12.61
2022-10-09T20:06:36.676Z,12.97
2022-10-09T20:09:06.464Z,11.85
2022-10-09T20:11:35.045Z,10.64
2022-10-09T20:14:04.233Z,10.19
2022-10-09T20:16:33.653Z,11.41
2022-10-09T20:19:02.751Z,12.71
2022-10-09T20:21:32.596Z,13.14
2022-10-09T20:24:01.459Z,11.99
2022-10-09T20:26:31.541Z,10.82
2022-10-09T20:28:59.645Z,9.99
2022-10-09T20:31:28.179Z,9.80
2022-10-09T20:33:56.190Z,11.19
2022-10-09T20:36:31.635Z,12.48
2022-10-09T20:39:02.724Z,12.88
2022-10-09T20:41:31.573Z,11.79
2022-10-09T20:44:01.551Z,10.66
2022-10-09T20:46:31.967Z,10.24
2022-10-09T20:49:01.604Z,11.50
2022-10-09T20:51:29.591Z,12.76
2022-10-09T20:53:59.993Z,12.95
2022-10-09T20:56:30.638Z,11.84
2022-10-09T20:58:59.022Z,10.65
2022-10-09T21:01:28.939Z,10.19
2022-10-09T21:03:59.382Z,11.55
2022-10-09T21:06:27.396Z,12.90
2022-10-09T21:08:57.579Z,13.22
2022-10-09T21:11:25.730Z,12.01
2022-10-09T21:13:54.026Z,10.77
2022-10-09T21:16:23.876Z,9.88
2022-10-09T21:18:58.669Z,9.67
2022-10-09T21:21:29.462Z,11.33
2022-10-09T21:23:59.573Z,12.55
2022-10-09T21:26:29.534Z,12.79
2022-10-09T21:28:59.974Z,11.64
2022-10-09T21:31:30.552Z,10.44
2022-10-09T21:34:01.360Z,9.57
2022-10-09T21:37:02.226Z,9.41
2022-10-09T21:39:31.577Z,11.29
2022-10-09T21:41:59.391Z,12.30
2022-10-09T21:44:27.853Z,12.67
2022-10-09T21:46:56.286Z,11.59
2022-10-09T21:49:27.308Z,10.37
2022-10-09T21:51:56.033Z,9.99
2022-10-09T21:54:24.338Z,11.43
2022-10-09T21:56:52.381Z,12.41
2022-10-09T21:59:20.310Z,12.62
2022-10-09T22:01:48.177Z,11.57
2022-10-09T22:04:16.167Z,10.41
2022-10-09T22:06:44.048Z,9.98
2022-10-09T22:09:12.597Z,11.20
2022-10-09T22:11:40.472Z,12.25
2022-10-09T22:14:08.330Z,12.65
2022-10-09T22:16:36.332Z,11.54
2022-10-09T22:19:04.232Z,10.34
2022-10-09T22:21:32.352Z,9.90
2022-10-09T22:24:01.283Z,11.18
2022-10-09T22:26:29.186Z,12.41
2022-10-09T22:28:56.972Z,12.73
2022-10-09T22:31:27.048Z,11.59
2022-10-09T22:33:57.952Z,10.37
2022-10-09T22:36:29.723Z,9.94
2022-10-09T22:39:01.595Z,11.28
2022-10-09T22:41:30.890Z,12.44
2022-10-09T22:44:00.748Z,12.89
2022-10-09T22:46:31.834Z,11.81
2022-10-09T22:49:00.851Z,10.67
2022-10-09T22:51:29.831Z,10.29
2022-10-09T22:53:59.431Z,11.61
2022-10-09T22:56:32.701Z,12.87
2022-10-09T22:59:01.007Z,13.21
2022-10-09T23:01:34.093Z,12.07
2022-10-09T23:04:09.245Z,10.88
2022-10-09T23:06:37.969Z,10.50
2022-10-09T23:09:07.745Z,11.88
2022-10-09T23:11:36.002Z,13.11
2022-10-09T23:14:04.784Z,13.37
2022-10-09T23:16:32.851Z,12.20
2022-10-09T23:19:06.084Z,11.09
2022-10-09T23:21:35.346Z,10.66
2022-10-09T23:24:06.499Z,12.01
2022-10-09T23:26:39.462Z,13.22
2022-10-09T23:29:12.560Z,13.49
2022-10-09T23:31:40.552Z,12.20
2022-10-09T23:34:08.376Z,10.98
2022-10-09T23:36:41.332Z,10.57
2022-10-09T23:39:09.199Z,11.97
2022-10-09T23:41:37.971Z,13.11
2022-10-09T23:44:05.852Z,13.36
2022-10-09T23:46:34.051Z,12.11
2022-10-09T23:49:02.381Z,10.92
2022-10-09T23:51:31.187Z,10.53
2022-10-09T23:53:59.785Z,11.88
2022-10-09T23:56:30.264Z,13.10
2022-10-09T23:59:00.083Z,13.33
